createdAt,value
2022-12-01T04:47:34.328Z,11.20
2022-12-01T04:50:01.098Z,10.88
2022-12-01T04:52:32.114Z,11.40
2022-12-01T04:55:02.002Z,11.77
2022-12-01T04:57:28.751Z,12.48
2022-12-01T04:59:55.351Z,11.27
2022-12-01T05:02:22.204Z,11.23
2022-12-01T05:04:48.894Z,10.07
2022-12-01T05:07:15.564Z,10.85
2022-12-01T05:09:42.288Z,11.25
2022-12-01T05:12:08.947Z,10.73
2022-12-01T05:14:35.592Z,10.80
2022-12-01T05:17:02.327Z,10.77
2022-12-01T05:19:47.813Z,10.63
2022-12-01T05:22:14.622Z,11.45
2022-12-01T05:24:41.265Z,11.23
2022-12-01T05:27:07.871Z,10.52
2022-12-01T05:29:35.785Z,11.32
2022-12-01T05:32:03.095Z,9.57
2022-12-01T05:34:30.199Z,9.82
2022-12-01T05:36:56.794Z,10.02
2022-12-01T05:39:23.421Z,10.88
2022-12-01T05:41:50.048Z,10.18
2022-12-01T05:44:16.773Z,10.52
2022-12-01T05:46:43.371Z,9.90
2022-12-01T05:49:09.984Z,10.20
2022-12-01T05:51:36.589Z,9.65
2022-12-01T05:54:03.438Z,10.10
2022-12-01T05:56:30.087Z,10.23
2022-12-01T05:58:56.706Z,9.80
2022-12-01T06:01:23.393Z,8.48
2022-12-01T06:03:50.190Z,9.30
2022-12-01T06:06:17.446Z,9.90
2022-12-01T06:08:44.077Z,9.77
2022-12-01T06:11:10.724Z,10.57
2022-12-01T06:13:37.543Z,9.30
2022-12-01T06:16:06.148Z,9.85
2022-12-01T06:18:35.688Z,9.68
2022-12-01T06:21:03.087Z,8.95
2022-12-01T06:23:30.795Z,9.95
2022-12-01T06:25:57.823Z,9.18
2022-12-01T06:28:24.561Z,9.45
2022-12-01T06:30:51.158Z,9.73
2022-12-01T06:33:17.948Z,8.98
2022-12-01T06:35:44.646Z,8.57
2022-12-01T06:38:11.321Z,9.18
2022-12-01T06:40:38.101Z,7.60
2022-12-01T06:43:05.077Z,8.88
2022-12-01T06:45:31.856Z,8.60
2022-12-01T06:47:58.622Z,9.07
2022-12-01T06:50:25.615Z,8.90
2022-12-01T06:52:52.733Z,8.20
2022-12-01T06:55:19.713Z,8.07
2022-12-01T06:57:46.612Z,10.52
2022-12-01T07:00:14.346Z,10.05
2022-12-01T07:02:41.291Z,10.13
2022-12-01T07:05:09.824Z,9.65
2022-12-01T07:07:38.851Z,8.60
2022-12-01T07:10:06.787Z,8.13
2022-12-01T07:12:33.454Z,9.55
2022-12-01T07:15:00.050Z,8.57
2022-12-01T07:17:26.703Z,8.65
2022-12-01T07:19:53.396Z,8.80
2022-12-01T07:22:20.038Z,8.85
2022-12-01T07:24:46.714Z,8.48
2022-12-01T07:27:13.294Z,10.15
2022-12-01T07:29:40.147Z,9.25
2022-12-01T07:32:07.903Z,10.25
2022-12-01T07:34:34.515Z,8.90
2022-12-01T07:37:01.146Z,11.20
2022-12-01T07:39:27.897Z,9.98
2022-12-01T07:41:54.516Z,10.00
2022-12-01T07:44:21.205Z,8.68
2022-12-01T07:46:47.782Z,9.68
2022-12-01T07:49:15.631Z,9.32
2022-12-01T07:51:42.305Z,9.48
2022-12-01T07:54:14.083Z,9.82
2022-12-01T07:56:40.892Z,10.80
2022-12-01T07:59:07.832Z,8.60
2022-12-01T08:01:34.631Z,9.00
2022-12-01T08:04:01.337Z,9.07
2022-12-01T08:06:28.043Z,8.63
2022-12-01T08:08:55.337Z,9.60
2022-12-01T08:11:25.800Z,9.35
2022-12-01T08:13:53.421Z,9.93
2022-12-01T08:16:23.003Z,9.52
2022-12-01T08:18:50.215Z,10.65
2022-12-01T08:21:19.735Z,10.38
2022-12-01T08:23:46.985Z,11.32
2022-12-01T08:26:18.812Z,10.20
2022-12-01T08:28:46.231Z,10.80
2022-12-01T08:31:22.065Z,10.57
2022-12-01T08:33:49.003Z,10.00
2022-12-01T08:36:16.304Z,11.90
2022-12-01T08:38:44.609Z,10.18
2022-12-01T08:41:12.104Z,10.65
2022-12-01T08:46:28.707Z,9.93
2022-12-01T08:48:57.179Z,10.43
2022-12-01T08:51:24.225Z,10.60
2022-12-01T08:53:51.497Z,9.93
2022-12-01T08:56:19.649Z,10.57
2022-12-01T08:58:46.523Z,11.85
2022-12-01T09:01:15.437Z,10.82
2022-12-01T09:03:43.015Z,11.02
2022-12-01T09:06:20.178Z,10.70
2022-12-01T09:08:47.752Z,11.93
2022-12-01T09:11:19.341Z,11.15
2022-12-01T09:13:51.490Z,12.95
2022-12-01T09:16:21.337Z,10.80
2022-12-01T09:18:48.543Z,11.23
2022-12-01T09:21:22.173Z,10.57
2022-12-01T09:26:19.023Z,11.65
2022-12-01T09:29:04.445Z,10.30
2022-12-01T09:31:31.279Z,11.07
2022-12-01T09:34:00.440Z,10.93
2022-12-01T09:36:28.386Z,10.88
2022-12-01T09:38:55.288Z,11.38
2022-12-01T09:41:27.425Z,11.45
2022-12-01T09:44:02.156Z,13.38
2022-12-01T09:46:35.264Z,11.15
2022-12-01T09:49:04.080Z,11.77
2022-12-01T09:51:35.987Z,11.15
2022-12-01T09:54:03.784Z,11.65
2022-12-01T09:56:40.517Z,10.75
2022-12-01T09:59:12.238Z,12.05
2022-12-01T10:01:43.324Z,10.63
2022-12-01T10:04:19.704Z,10.50
2022-12-01T10:06:56.047Z,10.95
2022-12-01T10:09:29.604Z,10.32
2022-12-01T10:12:11.180Z,10.48
2022-12-01T10:14:37.967Z,10.60
2022-12-01T10:17:28.408Z,11.32
2022-12-01T10:20:02.469Z,11.63
2022-12-01T10:23:07.777Z,10.75
2022-12-01T10:25:46.633Z,10.02
2022-12-01T10:28:41.164Z,10.52
2022-12-01T10:31:20.100Z,10.82
2022-12-01T10:34:17.453Z,10.82
2022-12-01T10:36:44.427Z,10.95
2022-12-01T10:39:33.936Z,12.25
2022-12-01T10:42:13.419Z,10.63
2022-12-01T10:44:40.306Z,8.90
2022-12-01T10:47:20.490Z,9.45
2022-12-01T10:49:47.775Z,9.52
2022-12-01T10:52:30.902Z,10.23
2022-12-01T10:54:57.577Z,9.93
2022-12-01T10:57:26.357Z,7.72
2022-12-01T10:59:57.773Z,9.85
2022-12-01T11:02:27.621Z,10.15
2022-12-01T11:05:01.518Z,11.45
2022-12-01T11:07:43.279Z,10.02
2022-12-01T11:10:31.492Z,8.52
2022-12-01T11:13:14.709Z,9.20
2022-12-01T11:15:51.831Z,10.32
2022-12-01T11:18:37.120Z,9.65
2022-12-01T11:21:13.893Z,8.88
2022-12-01T11:23:52.282Z,10.77
2022-12-01T11:26:31.837Z,8.73
2022-12-01T11:29:41.345Z,8.30
2022-12-01T11:32:28.996Z,8.98
2022-12-01T11:35:03.099Z,9.25
2022-12-01T11:37:37.919Z,8.10
2022-12-01T11:40:21.270Z,8.75
2022-12-01T11:42:54.333Z,13.18
2022-12-01T11:45:20.876Z,8.40
2022-12-01T11:48:22.920Z,7.57
2022-12-01T11:51:08.594Z,10.32
2022-12-01T11:53:41.346Z,9.90
2022-12-01T11:56:23.489Z,9.93
2022-12-01T11:59:00.900Z,7.43
2022-12-01T12:02:00.765Z,7.00
2022-12-01T12:04:57.861Z,8.35
2022-12-01T12:07:45.030Z,7.82
2022-12-01T12:10:28.614Z,7.45
2022-12-01T12:13:16.790Z,8.00
2022-12-01T12:15:57.219Z,7.75
2022-12-01T12:18:49.121Z,8.88
2022-12-01T12:21:34.653Z,6.85
2022-12-01T12:24:31.142Z,8.30
2022-12-01T12:27:16.618Z,7.10
2022-12-01T12:30:18.439Z,7.07
2022-12-01T12:33:11.207Z,7.57
2022-12-01T12:36:03.913Z,9.73
2022-12-01T12:38:50.780Z,8.32
2022-12-01T12:41:22.918Z,7.72
2022-12-01T12:44:28.298Z,7.15
2022-12-01T12:47:17.872Z,7.10
2022-12-01T12:49:54.408Z,6.47
2022-12-01T12:52:53.741Z,8.18
2022-12-01T12:55:26.214Z,8.50
2022-12-01T12:58:07.945Z,6.80
2022-12-01T13:00:42.680Z,7.47
2022-12-01T13:03:33.606Z,6.60
2022-12-01T13:06:10.132Z,6.65
2022-12-01T13:08:48.006Z,8.73
2022-12-01T13:11:24.054Z,7.78
2022-12-01T13:14:17.944Z,8.98
2022-12-01T13:16:48.015Z,8.55
2022-12-01T13:19:20.516Z,7.40
2022-12-01T13:21:49.967Z,7.10
2022-12-01T13:24:23.421Z,7.28
2022-12-01T13:29:25.565Z,8.20
2022-12-01T13:31:54.499Z,7.30
2022-12-01T13:34:38.517Z,7.30
2022-12-01T13:39:37.781Z,7.95
2022-12-01T13:42:08.932Z,8.35
2022-12-01T13:44:41.852Z,7.90
2022-12-01T13:47:11.333Z,9.05
2022-12-01T13:49:49.750Z,7.65
2022-12-01T13:52:19.627Z,9.25
2022-12-01T13:55:08.064Z,8.80
2022-12-01T13:57:37.748Z,9.15
2022-12-01T14:00:27.926Z,8.30
2022-12-01T14:03:20.743Z,7.80
2022-12-01T14:05:53.791Z,8.27
2022-12-01T14:08:29.651Z,7.57
2022-12-01T14:11:17.321Z,7.95
2022-12-01T14:14:07.331Z,7.97
2022-12-01T14:16:58.403Z,7.63
2022-12-01T14:19:52.711Z,8.35
2022-12-01T14:25:02.786Z,9.13
2022-12-01T14:27:43.399Z,8.75
2022-12-01T14:30:41.042Z,8.93
2022-12-01T14:33:41.797Z,8.23
2022-12-01T14:36:23.684Z,7.95
2022-12-01T14:38:59.335Z,7.45
2022-12-01T14:41:33.180Z,9.98
2022-12-01T14:44:05.943Z,8.63
2022-12-01T14:46:50.372Z,7.53
2022-12-01T14:49:26.097Z,8.15
2022-12-01T14:52:02.562Z,9.07
2022-12-01T14:54:44.852Z,8.45
2022-12-01T14:57:16.656Z,9.63
2022-12-01T14:59:44.500Z,9.25
2022-12-01T15:02:12.221Z,8.38
2022-12-01T15:05:09.535Z,9.32
2022-12-01T15:07:45.697Z,8.65
2022-12-01T15:10:36.034Z,9.43
2022-12-01T15:13:24.609Z,9.15
2022-12-01T15:16:15.923Z,9.18
2022-12-01T15:18:43.312Z,8.88
2022-12-01T15:21:15.448Z,10.88
2022-12-01T15:24:04.565Z,10.30
2022-12-01T15:26:37.745Z,9.18
2022-12-01T15:29:13.278Z,10.13
2022-12-01T15:31:40.459Z,11.20
2022-12-01T15:34:14.366Z,10.70
2022-12-01T15:36:41.403Z,11.15
2022-12-01T15:39:16.851Z,10.30
2022-12-01T15:41:45.401Z,12.38
2022-12-01T15:44:31.836Z,11.52
2022-12-01T15:46:58.854Z,9.63
2022-12-01T15:49:29.430Z,9.55
2022-12-01T15:52:06.866Z,9.50
2022-12-01T15:54:33.987Z,11.15
2022-12-01T15:57:01.733Z,11.75
2022-12-01T15:59:37.417Z,14.25
2022-12-01T16:02:28.917Z,12.65
2022-12-01T16:05:03.429Z,10.82
2022-12-01T16:08:12.027Z,9.45
2022-12-01T16:10:31.274Z,10.30
2022-12-01T16:13:35.724Z,10.20
2022-12-01T16:16:22.906Z,9.73
2022-12-01T16:18:55.495Z,10.23
2022-12-01T16:21:22.871Z,9.60
2022-12-01T16:23:57.331Z,12.75
2022-12-01T16:26:23.992Z,9.75
2022-12-01T16:28:50.651Z,7.78
2022-12-01T16:31:20.715Z,8.50
2022-12-01T16:33:47.915Z,10.75
2022-12-01T16:36:14.946Z,9.93
2022-12-01T16:38:41.867Z,10.73
2022-12-01T16:41:17.033Z,9.70
2022-12-01T16:44:12.608Z,9.38
2022-12-01T16:46:34.279Z,9.45
2022-12-01T16:49:01.096Z,9.15
2022-12-01T16:51:30.106Z,10.13
2022-12-01T16:54:05.339Z,9.70
2022-12-01T16:56:32.256Z,10.57
2022-12-01T16:58:59.015Z,10.02
2022-12-01T17:01:25.692Z,10.13
2022-12-01T17:03:52.379Z,9.93
2022-12-01T17:06:19.986Z,9.88
2022-12-01T17:08:46.980Z,11.00
2022-12-01T17:11:13.632Z,12.70
2022-12-01T17:13:40.358Z,11.43
2022-12-01T17:16:13.847Z,10.10
2022-12-01T17:18:43.547Z,9.80
2022-12-01T17:21:11.202Z,9.52
2022-12-01T17:23:38.966Z,10.15
2022-12-01T17:26:14.678Z,12.55
2022-12-01T17:28:41.553Z,10.60
2022-12-01T17:31:09.285Z,9.43
2022-12-01T17:33:36.443Z,10.07
2022-12-01T17:36:14.000Z,8.80
2022-12-01T17:38:42.540Z,9.18
2022-12-01T17:41:12.069Z,8.15
2022-12-01T17:43:39.493Z,8.75
2022-12-01T17:46:07.983Z,8.68
2022-12-01T17:48:43.292Z,7.88
2022-12-01T17:51:12.107Z,8.63
2022-12-01T17:53:40.278Z,8.35
2022-12-01T17:56:09.293Z,9.73
2022-12-01T17:58:36.322Z,7.70
2022-12-01T18:01:04.236Z,8.55
2022-12-01T18:03:31.119Z,8.25
2022-12-01T18:06:01.937Z,7.32
2022-12-01T18:08:30.555Z,9.30
2022-12-01T18:11:02.203Z,9.70
2022-12-01T18:13:28.962Z,10.85
2022-12-01T18:15:55.751Z,9.13
2022-12-01T18:18:22.444Z,9.73
2022-12-01T18:20:49.098Z,10.57
2022-12-01T18:23:15.761Z,8.63
2022-12-01T18:25:42.379Z,9.20
2022-12-01T18:28:10.984Z,8.73
2022-12-01T18:30:38.680Z,9.88
2022-12-01T18:33:08.605Z,10.15
2022-12-01T18:35:35.245Z,10.02
2022-12-01T18:38:01.863Z,9.00
2022-12-01T18:40:28.513Z,9.15
2022-12-01T18:42:55.156Z,8.43
2022-12-01T18:45:21.745Z,8.95
2022-12-01T18:47:48.561Z,8.07
2022-12-01T18:50:15.204Z,9.60
2022-12-01T18:52:41.937Z,9.95
2022-12-01T18:55:08.893Z,8.80
2022-12-01T18:57:35.604Z,10.15
2022-12-01T19:00:04.663Z,8.70
2022-12-01T19:02:31.600Z,9.27
2022-12-01T19:04:58.305Z,10.07
2022-12-01T19:07:29.491Z,9.05
2022-12-01T19:09:56.684Z,9.20
2022-12-01T19:12:23.362Z,9.48
2022-12-01T19:14:52.953Z,11.73
2022-12-01T19:17:20.077Z,15.50
2022-12-01T19:19:46.709Z,17.42
2022-12-01T19:22:13.341Z,14.43
2022-12-01T19:24:40.016Z,12.05
2022-12-01T19:27:06.644Z,11.43
2022-12-01T19:29:33.294Z,13.18
2022-12-01T19:32:00.248Z,11.02
2022-12-01T19:34:26.970Z,11.98
2022-12-01T19:36:53.888Z,12.18
2022-12-01T19:39:20.561Z,11.60
2022-12-01T19:41:47.229Z,11.18
2022-12-01T19:44:13.870Z,10.10
2022-12-01T19:46:40.506Z,10.63
2022-12-01T19:49:07.281Z,10.43
2022-12-01T19:51:36.253Z,10.30
2022-12-01T19:54:04.681Z,9.82
2022-12-01T19:56:32.193Z,8.73
2022-12-01T19:58:59.676Z,8.75
2022-12-01T20:01:27.262Z,9.95
2022-12-01T20:03:55.084Z,9.77
2022-12-01T20:06:24.504Z,9.75
2022-12-01T20:08:51.725Z,9.88
2022-12-01T20:11:18.701Z,8.43
2022-12-01T20:13:46.963Z,10.15
2022-12-01T20:16:19.056Z,9.95
2022-12-01T20:18:46.255Z,10.40
2022-12-01T20:21:21.157Z,8.82
2022-12-01T20:23:50.322Z,9.23
2022-12-01T20:26:19.013Z,9.02
2022-12-01T20:28:47.984Z,9.85
2022-12-01T20:31:18.955Z,9.40
2022-12-01T20:33:46.430Z,9.13
2022-12-01T20:36:14.279Z,8.52
2022-12-01T20:38:41.513Z,9.20
2022-12-01T20:41:08.271Z,9.02
2022-12-01T20:43:35.550Z,8.32
2022-12-01T20:46:03.372Z,8.88
2022-12-01T20:48:30.724Z,8.00
2022-12-01T20:51:00.829Z,6.75
2022-12-01T20:53:27.662Z,8.43
2022-12-01T20:55:54.818Z,8.52
2022-12-01T20:58:21.987Z,8.88
2022-12-01T21:00:49.143Z,7.53
2022-12-01T21:03:15.853Z,7.18
2022-12-01T21:05:43.574Z,7.40
2022-12-01T21:08:12.422Z,8.43
2022-12-01T21:10:40.600Z,10.05
2022-12-01T21:13:43.833Z,8.43
2022-12-01T21:16:26.039Z,9.70
2022-12-01T21:18:55.295Z,8.15
2022-12-01T21:21:27.773Z,8.93
2022-12-01T21:24:21.505Z,9.02
2022-12-01T21:26:58.150Z,9.00
2022-12-01T21:29:39.775Z,8.75
2022-12-01T21:32:41.131Z,9.63
2022-12-01T21:35:22.087Z,7.72
2022-12-01T21:37:50.489Z,8.57
2022-12-01T21:40:21.140Z,8.00
2022-12-01T21:42:48.390Z,8.45
2022-12-01T21:45:35.796Z,8.63
2022-12-01T21:48:19.610Z,8.90
2022-12-01T21:50:50.884Z,9.13
2022-12-01T21:53:20.784Z,8.63
2022-12-01T21:55:49.252Z,8.48
2022-12-01T21:58:38.901Z,8.45
2022-12-01T22:01:35.389Z,12.75
2022-12-01T22:04:12.713Z,11.60
2022-12-01T22:06:43.093Z,10.50
2022-12-01T22:09:34.094Z,10.00
2022-12-01T22:12:14.280Z,9.30
2022-12-01T22:14:41.153Z,9.27
2022-12-01T22:17:07.774Z,9.57
2022-12-01T22:19:36.823Z,9.52
2022-12-01T22:22:09.465Z,13.88
2022-12-01T22:24:42.140Z,8.93
2022-12-01T22:27:20.673Z,8.37
2022-12-01T22:29:48.777Z,9.13
2022-12-01T22:32:15.369Z,10.43
2022-12-01T22:35:22.988Z,9.65
2022-12-01T22:37:55.581Z,9.30
2022-12-01T22:41:03.226Z,10.38
2022-12-01T22:43:37.812Z,9.07
2022-12-01T22:46:27.646Z,9.63
2022-12-01T22:49:20.182Z,9.60
2022-12-01T22:51:52.600Z,9.07
2022-12-01T22:54:32.447Z,10.05
2022-12-01T22:57:11.123Z,9.23
2022-12-01T22:59:40.238Z,8.52
2022-12-01T23:02:20.620Z,9.00
2022-12-01T23:04:48.949Z,8.98
2022-12-01T23:07:33.827Z,8.80
2022-12-01T23:10:19.167Z,8.52
2022-12-01T23:12:47.879Z,9.27
2022-12-01T23:15:22.029Z,9.65
2022-12-01T23:17:49.565Z,9.90
2022-12-01T23:20:36.457Z,8.77
2022-12-01T23:23:13.317Z,9.38
2022-12-01T23:25:40.836Z,8.55
2022-12-01T23:28:09.471Z,14.40
2022-12-01T23:30:38.614Z,9.57
2022-12-01T23:33:25.622Z,10.75
2022-12-01T23:36:00.114Z,8.85
2022-12-01T23:38:37.016Z,8.10
2022-12-01T23:41:07.685Z,14.23
2022-12-01T23:43:44.112Z,9.90
2022-12-01T23:46:20.672Z,9.10
2022-12-01T23:48:50.689Z,9.63
2022-12-01T23:51:30.677Z,9.48
2022-12-01T23:54:00.671Z,10.57
2022-12-01T23:56:30.623Z,12.35
2022-12-01T23:59:00.488Z,10.90
